Time;durP1;ratioP1;P1;durP2;ratioP2;P2;SDS_P1;SDS_P2;PMS_P1;PMS_P2;Temp;Humidity;BMP_temperature;BMP_pressure;BME280_temperature;BME280_humidity;BME280_pressure;Samples;Min_cycle;Max_cycle;Signal;HPM_P1;HPM_P2
2023/06/01 00:00:55;;;;;;;0.60;0.60;;;;;;;;;;5119361;28;20118;-85
2023/06/01 00:03:22;;;;;;;0.47;0.47;;;;;;;;;;5106271;27;20038;-86
2023/06/01 00:05:51;;;;;;;0.35;0.35;;;;;;;;;;5120056;27;20036;-85
2023/06/01 00:08:16;;;;;;;0.20;0.20;;;;;;;;;;5101960;28;20039;-86
2023/06/01 00:10:44;;;;;;;0.43;0.43;;;;;;;;;;5103363;28;20097;-85
2023/06/01 00:13:10;;;;;;;3.50;0.60;;;;;;;;;;5099882;28;20031;-85
2023/06/01 00:15:36;;;;;;;1.33;0.88;;;;;;;;;;5115974;28;20061;-86
2023/06/01 00:18:03;;;;;;;0.47;0.15;;;;;;;;;;5115803;28;20427;-85
2023/06/01 00:20:28;;;;;;;0.20;0.20;;;;;;;;;;5115248;28;20035;-85
2023/06/01 00:22:55;;;;;;;1.02;0.85;;;;;;;;;;5116268;28;20093;-84
2023/06/01 00:25:26;;;;;;;1.52;1.38;;;;;;;;;;5093035;28;20044;-84
2023/06/01 00:27:52;;;;;;;0.10;0.10;;;;;;;;;;5094943;28;20032;-86
2023/06/01 00:30:20;;;;;;;1.58;0.98;;;;;;;;;;5098722;28;20397;-86
2023/06/01 00:32:48;;;;;;;1.13;0.85;;;;;;;;;;5099735;28;20074;-84
2023/06/01 00:35:14;;;;;;;0.93;0.75;;;;;;;;;;5116658;28;20035;-84
2023/06/01 00:37:43;;;;;;;0.75;0.73;;;;;;;;;;5099997;28;20372;-85
2023/06/01 00:40:09;;;;;;;0.98;0.85;;;;;;;;;;5097149;28;20073;-85
2023/06/01 00:42:37;;;;;;;0.73;0.65;;;;;;;;;;5097035;28;20031;-84
2023/06/01 00:45:13;;;;;;;0.93;0.85;;;;;;;;;;5112308;28;20391;-85
2023/06/01 00:47:44;;;;;;;0.52;0.52;;;;;;;;;;5098766;28;20100;-84
2023/06/01 00:50:11;;;;;;;0.55;0.55;;;;;;;;;;5098680;28;20522;-85
2023/06/01 00:52:43;;;;;;;0.15;0.15;;;;;;;;;;5119695;27;20035;-85
2023/06/01 00:55:12;;;;;;;0.30;0.30;;;;;;;;;;5115927;28;20118;-87
2023/06/01 00:57:43;;;;;;;0.20;0.17;;;;;;;;;;5098563;28;20066;-85
2023/06/01 01:00:10;;;;;;;0.30;0.30;;;;;;;;;;5115789;27;20395;-85
2023/06/01 01:02:40;;;;;;;0.00;0.00;;;;;;;;;;5092940;28;20070;-84
2023/06/01 01:05:11;;;;;;;0.77;0.63;;;;;;;;;;5096089;28;20032;-85
2023/06/01 01:07:56;;;;;;;0.55;0.55;;;;;;;;;;5098771;28;20533;-85
2023/06/01 01:10:27;;;;;;;1.20;0.82;;;;;;;;;;5098844;28;20035;-85
2023/06/01 01:13:13;;;;;;;0.82;0.73;;;;;;;;;;5091381;28;20046;-87
2023/06/01 01:16:04;;;;;;;0.70;0.70;;;;;;;;;;5097325;28;20384;-88
2023/06/01 01:18:36;;;;;;;0.10;0.10;;;;;;;;;;5093782;28;20039;-86
2023/06/01 01:21:21;;;;;;;0.10;0.10;;;;;;;;;;5095772;28;20052;-86
2023/06/01 01:24:14;;;;;;;1.30;1.20;;;;;;;;;;5097940;28;20038;-84
2023/06/01 01:27:08;;;;;;;3.20;0.43;;;;;;;;;;5115947;28;20487;-86
2023/06/01 01:29:37;;;;;;;0.75;0.65;;;;;;;;;;5065590;28;20040;-84
2023/06/01 01:32:04;;;;;;;0.10;0.10;;;;;;;;;;5096842;28;20039;-87
2023/06/01 01:34:30;;;;;;;0.55;0.45;;;;;;;;;;5093091;28;20040;-87
2023/06/01 01:36:56;;;;;;;0.20;0.20;;;;;;;;;;5117717;28;20031;-85
2023/06/01 01:39:21;;;;;;;0.80;0.80;;;;;;;;;;5095000;28;20403;-85
2023/06/01 01:41:47;;;;;;;0.25;0.25;;;;;;;;;;5098213;28;20038;-84
2023/06/01 01:44:14;;;;;;;0.20;0.20;;;;;;;;;;5119587;28;20027;-86
2023/06/01 01:46:52;;;;;;;0.20;0.20;;;;;;;;;;5094870;28;20037;-84
2023/06/01 01:49:30;;;;;;;2.28;1.17;;;;;;;;;;5117987;27;20038;-86
2023/06/01 01:52:12;;;;;;;0.38;0.38;;;;;;;;;;5096758;28;20085;-85
2023/06/01 01:54:43;;;;;;;0.40;0.40;;;;;;;;;;5115612;28;20067;-84
2023/06/01 01:57:09;;;;;;;0.43;0.43;;;;;;;;;;5119100;27;20042;-85
2023/06/01 01:59:45;;;;;;;0.10;0.10;;;;;;;;;;5117189;28;20091;-85
2023/06/01 02:02:11;;;;;;;0.35;0.35;;;;;;;;;;5114610;28;20035;-86
2023/06/01 02:04:41;;;;;;;0.17;0.08;;;;;;;;;;5115547;27;20032;-85
2023/06/01 02:07:09;;;;;;;0.20;0.20;;;;;;;;;;5099536;28;20589;-85
2023/06/01 02:09:35;;;;;;;0.65;0.60;;;;;;;;;;5093111;28;20031;-83
2023/06/01 02:12:01;;;;;;;0.73;0.73;;;;;;;;;;5093438;28;20120;-83
2023/06/01 02:14:27;;;;;;;0.65;0.65;;;;;;;;;;5098096;28;20060;-83
2023/06/01 02:16:57;;;;;;;1.25;1.17;;;;;;;;;;5112633;28;20027;-85
2023/06/01 02:19:25;;;;;;;0.43;0.43;;;;;;;;;;5114882;28;20149;-83
2023/06/01 02:21:50;;;;;;;0.47;0.47;;;;;;;;;;5110736;28;20035;-86
2023/06/01 02:24:19;;;;;;;0.17;0.17;;;;;;;;;;5093253;28;20062;-83
2023/06/01 02:27:02;;;;;;;0.13;0.13;;;;;;;;;;5098790;28;20039;-84
2023/06/01 02:29:27;;;;;;;0.95;0.73;;;;;;;;;;5095603;28;20188;-85
2023/06/01 02:31:55;;;;;;;1.77;0.95;;;;;;;;;;5115643;28;20059;-84
2023/06/01 02:34:21;;;;;;;0.55;0.43;;;;;;;;;;5115552;28;20036;-84
2023/06/01 02:36:48;;;;;;;0.35;0.35;;;;;;;;;;5094696;28;20479;-86
2023/06/01 02:39:19;;;;;;;0.40;0.40;;;;;;;;;;5091859;28;20403;-87
2023/06/01 02:41:45;;;;;;;0.82;0.50;;;;;;;;;;5097344;28;20043;-84
2023/06/01 02:44:11;;;;;;;0.00;0.00;;;;;;;;;;5087189;28;20078;-86
2023/06/01 02:46:36;;;;;;;0.63;0.63;;;;;;;;;;5116685;28;20031;-85
2023/06/01 02:49:03;;;;;;;0.85;0.82;;;;;;;;;;5094438;28;20036;-83
2023/06/01 02:51:31;;;;;;;0.68;0.65;;;;;;;;;;5093677;28;20079;-86
2023/06/01 02:53:56;;;;;;;0.17;0.17;;;;;;;;;;5113737;28;20115;-85
2023/06/01 02:56:22;;;;;;;0.90;0.70;;;;;;;;;;5113503;28;20513;-83
2023/06/01 02:58:48;;;;;;;0.50;0.50;;;;;;;;;;5097440;28;20031;-86
2023/06/01 03:01:14;;;;;;;1.00;0.73;;;;;;;;;;5116195;28;20078;-86
2023/06/01 03:03:48;;;;;;;0.20;0.20;;;;;;;;;;5096623;28;20488;-84
2023/06/01 03:06:17;;;;;;;0.93;0.80;;;;;;;;;;5114486;28;20046;-85
2023/06/01 03:08:43;;;;;;;0.20;0.20;;;;;;;;;;5118610;28;20446;-86
2023/06/01 03:11:08;;;;;;;0.15;0.15;;;;;;;;;;5099071;28;20059;-85
2023/06/01 03:13:34;;;;;;;1.10;0.98;;;;;;;;;;5113867;28;20114;-85
2023/06/01 03:15:59;;;;;;;1.30;0.98;;;;;;;;;;5093317;28;20031;-86
2023/06/01 03:18:25;;;;;;;0.30;0.30;;;;;;;;;;5114890;28;20035;-84
2023/06/01 03:20:52;;;;;;;0.38;0.38;;;;;;;;;;5113121;28;20060;-84
2023/06/01 03:23:20;;;;;;;0.63;0.63;;;;;;;;;;5115593;28;20118;-87
2023/06/01 03:25:45;;;;;;;0.50;0.50;;;;;;;;;;5091796;28;20038;-85
2023/06/01 03:28:14;;;;;;;0.38;0.38;;;;;;;;;;5112369;28;20036;-85
2023/06/01 03:30:42;;;;;;;0.82;0.73;;;;;;;;;;5117573;28;20092;-83
2023/06/01 03:33:07;;;;;;;0.93;0.93;;;;;;;;;;5069502;28;20118;-86
2023/06/01 03:35:33;;;;;;;0.55;0.30;;;;;;;;;;5068972;28;20040;-84
2023/06/01 03:38:01;;;;;;;0.88;0.80;;;;;;;;;;5067086;28;20078;-84
2023/06/01 03:40:26;;;;;;;1.13;1.02;;;;;;;;;;5071573;28;20408;-85
2023/06/01 03:42:52;;;;;;;0.50;0.50;;;;;;;;;;5090640;28;20032;-85
2023/06/01 03:45:18;;;;;;;0.40;0.28;;;;;;;;;;5071625;28;20460;-84
2023/06/01 03:47:44;;;;;;;0.28;0.28;;;;;;;;;;5073295;28;20400;-84
2023/06/01 03:50:10;;;;;;;1.00;0.88;;;;;;;;;;5071727;28;20664;-89
2023/06/01 03:52:36;;;;;;;0.52;0.52;;;;;;;;;;5068569;28;20029;-84
2023/06/01 03:55:08;;;;;;;0.50;0.50;;;;;;;;;;5084924;28;20435;-86
2023/06/01 03:57:34;;;;;;;4.55;0.55;;;;;;;;;;5072472;28;20403;-85
2023/06/01 04:00:00;;;;;;;0.43;0.43;;;;;;;;;;5074235;28;20035;-85
2023/06/01 04:02:26;;;;;;;0.55;0.47;;;;;;;;;;5084013;28;20033;-85
2023/06/01 04:04:52;;;;;;;0.85;0.80;;;;;;;;;;5080177;28;20029;-85
2023/06/01 04:07:18;;;;;;;0.43;0.43;;;;;;;;;;5070195;28;20100;-87
2023/06/01 04:09:46;;;;;;;1.20;0.82;;;;;;;;;;5067763;28;20417;-83
2023/06/01 04:12:13;;;;;;;0.47;0.15;;;;;;;;;;5081995;28;20107;-85
2023/06/01 04:14:39;;;;;;;0.60;0.50;;;;;;;;;;5069498;28;20039;-84
2023/06/01 04:17:06;;;;;;;0.30;0.30;;;;;;;;;;5069035;28;20036;-84
2023/06/01 04:19:32;;;;;;;0.38;0.30;;;;;;;;;;5074202;28;20137;-84
2023/06/01 04:21:58;;;;;;;0.57;0.55;;;;;;;;;;5079949;28;20040;-84
2023/06/01 04:24:23;;;;;;;0.40;0.40;;;;;;;;;;5065523;28;20048;-83
2023/06/01 04:26:50;;;;;;;1.20;0.55;;;;;;;;;;5087577;28;20032;-82
2023/06/01 04:29:16;;;;;;;0.47;0.47;;;;;;;;;;5086586;28;20054;-81
2023/06/01 04:31:41;;;;;;;1.05;1.05;;;;;;;;;;5090322;28;20775;-82
2023/06/01 04:34:06;;;;;;;0.75;0.65;;;;;;;;;;5115472;27;20032;-83
2023/06/01 04:36:39;;;;;;;0.65;0.63;;;;;;;;;;5107571;28;20047;-85
2023/06/01 04:39:07;;;;;;;0.30;0.30;;;;;;;;;;5113746;27;20035;-83
2023/06/01 04:41:37;;;;;;;0.63;0.63;;;;;;;;;;5113615;27;20475;-86
2023/06/01 04:44:05;;;;;;;0.32;0.32;;;;;;;;;;5109595;28;20059;-83
2023/06/01 04:46:31;;;;;;;0.10;0.10;;;;;;;;;;5110145;28;20490;-87
2023/06/01 04:48:59;;;;;;;0.43;0.43;;;;;;;;;;5110979;28;20031;-84
2023/06/01 04:51:26;;;;;;;2.47;0.47;;;;;;;;;;5112486;27;20027;-84
2023/06/01 04:53:53;;;;;;;0.95;0.60;;;;;;;;;;5109527;28;20088;-83
2023/06/01 04:56:24;;;;;;;0.15;0.15;;;;;;;;;;5090157;28;20386;-84
2023/06/01 04:58:51;;;;;;;0.32;0.32;;;;;;;;;;5111404;27;20027;-83
2023/06/01 05:01:17;;;;;;;0.80;0.50;;;;;;;;;;5108791;27;20027;-83
2023/06/01 05:03:46;;;;;;;0.85;0.85;;;;;;;;;;5093221;27;20183;-83
2023/06/01 05:06:13;;;;;;;0.10;0.10;;;;;;;;;;5109926;28;20052;-84
2023/06/01 05:08:42;;;;;;;0.63;0.47;;;;;;;;;;5108641;28;20084;-85
2023/06/01 05:11:09;;;;;;;0.63;0.63;;;;;;;;;;5111594;28;20045;-86
2023/06/01 05:13:35;;;;;;;0.40;0.40;;;;;;;;;;5113315;27;20041;-84
2023/06/01 05:16:02;;;;;;;0.35;0.35;;;;;;;;;;5112251;27;20387;-83
2023/06/01 05:18:28;;;;;;;0.10;0.10;;;;;;;;;;5107615;28;20040;-82
2023/06/01 05:20:53;;;;;;;0.43;0.20;;;;;;;;;;5112436;27;20045;-80
2023/06/01 05:23:19;;;;;;;0.10;0.10;;;;;;;;;;5106509;28;20053;-82
2023/06/01 05:25:44;;;;;;;0.43;0.22;;;;;;;;;;5111522;27;20039;-83
2023/06/01 05:28:10;;;;;;;0.35;0.32;;;;;;;;;;5111749;28;20499;-82
2023/06/01 05:30:35;;;;;;;0.13;0.13;;;;;;;;;;5111672;28;20035;-85
2023/06/01 05:33:01;;;;;;;0.60;0.60;;;;;;;;;;5089366;28;20160;-81
2023/06/01 05:35:26;;;;;;;0.65;0.65;;;;;;;;;;5112813;28;20035;-83
2023/06/01 05:37:52;;;;;;;0.10;0.10;;;;;;;;;;5095041;28;20032;-86
2023/06/01 05:40:17;;;;;;;0.10;0.10;;;;;;;;;;5109859;27;20036;-83
2023/06/01 05:42:43;;;;;;;0.50;0.50;;;;;;;;;;5109460;28;20119;-81
2023/06/01 05:45:09;;;;;;;0.32;0.32;;;;;;;;;;5107383;27;20054;-81
2023/06/01 05:47:34;;;;;;;0.65;0.60;;;;;;;;;;5111998;28;20562;-80
2023/06/01 05:50:00;;;;;;;0.80;0.55;;;;;;;;;;5111898;28;20106;-85
2023/06/01 05:52:26;;;;;;;0.35;0.35;;;;;;;;;;5111486;28;20024;-84
2023/06/01 05:54:53;;;;;;;0.00;0.00;;;;;;;;;;5108569;28;20035;-84
2023/06/01 05:57:19;;;;;;;0.35;0.35;;;;;;;;;;5110375;28;20372;-86
2023/06/01 05:59:46;;;;;;;0.10;0.10;;;;;;;;;;5108814;28;20031;-86
2023/06/01 06:02:12;;;;;;;0.30;0.30;;;;;;;;;;5110484;28;20464;-84
2023/06/01 06:04:37;;;;;;;0.17;0.17;;;;;;;;;;5092050;28;20084;-82
2023/06/01 06:07:03;;;;;;;0.20;0.05;;;;;;;;;;5111715;28;20027;-84
2023/06/01 06:09:29;;;;;;;0.10;0.10;;;;;;;;;;5086033;28;20057;-85
2023/06/01 06:11:54;;;;;;;0.05;0.05;;;;;;;;;;5109050;28;20084;-85
2023/06/01 06:14:20;;;;;;;0.25;0.25;;;;;;;;;;5111136;28;20066;-84
2023/06/01 06:16:45;;;;;;;0.68;0.68;;;;;;;;;;5111436;28;20118;-82
2023/06/01 06:19:11;;;;;;;0.28;0.28;;;;;;;;;;5111162;28;20058;-83
2023/06/01 06:21:37;;;;;;;0.55;0.55;;;;;;;;;;5110119;28;20047;-83
2023/06/01 06:24:03;;;;;;;0.22;0.22;;;;;;;;;;5109191;28;20487;-83
2023/06/01 06:26:29;;;;;;;0.22;0.22;;;;;;;;;;5111201;28;20112;-82
2023/06/01 06:28:55;;;;;;;0.50;0.50;;;;;;;;;;5108656;28;20038;-82
2023/06/01 06:31:21;;;;;;;0.55;0.55;;;;;;;;;;5109718;28;20489;-81
2023/06/01 06:33:47;;;;;;;1.55;0.80;;;;;;;;;;5111577;28;20042;-81
2023/06/01 06:36:12;;;;;;;0.25;0.20;;;;;;;;;;5108124;28;20032;-86
2023/06/01 06:38:37;;;;;;;0.55;0.55;;;;;;;;;;5108699;28;20475;-85
2023/06/01 06:41:03;;;;;;;1.75;0.73;;;;;;;;;;5110930;28;20128;-82
2023/06/01 06:43:29;;;;;;;1.98;1.27;;;;;;;;;;5110527;28;20040;-85
2023/06/01 06:45:54;;;;;;;0.65;0.57;;;;;;;;;;5112044;28;20038;-84
2023/06/01 06:48:20;;;;;;;0.20;0.20;;;;;;;;;;5110248;28;20032;-83
2023/06/01 06:50:45;;;;;;;0.10;0.10;;;;;;;;;;5110734;28;20035;-83
2023/06/01 06:53:11;;;;;;;2.10;0.45;;;;;;;;;;5087994;28;20038;-83
2023/06/01 06:55:37;;;;;;;0.88;0.65;;;;;;;;;;5090672;28;20151;-84
2023/06/01 06:58:02;;;;;;;0.75;0.60;;;;;;;;;;5110738;28;20102;-83
2023/06/01 07:00:28;;;;;;;0.40;0.30;;;;;;;;;;5107405;28;20039;-83
2023/06/01 07:02:55;;;;;;;0.20;0.20;;;;;;;;;;5108740;28;20059;-83
2023/06/01 07:05:20;;;;;;;0.60;0.60;;;;;;;;;;5107887;28;20502;-83
2023/06/01 07:07:46;;;;;;;1.30;1.17;;;;;;;;;;5110754;28;20110;-83
2023/06/01 07:10:12;;;;;;;0.38;0.38;;;;;;;;;;5111642;28;20035;-81
2023/06/01 07:12:37;;;;;;;0.50;0.50;;;;;;;;;;5113615;28;20104;-82
2023/06/01 07:15:03;;;;;;;2.05;1.15;;;;;;;;;;5112287;27;20044;-81
2023/06/01 07:17:29;;;;;;;1.15;1.05;;;;;;;;;;5115758;27;20096;-85
2023/06/01 07:19:54;;;;;;;0.32;0.30;;;;;;;;;;5117361;27;20023;-81
2023/06/01 07:22:21;;;;;;;0.50;0.50;;;;;;;;;;5102234;27;20110;-81
2023/06/01 07:24:47;;;;;;;1.17;1.08;;;;;;;;;;5109007;28;20030;-80
2023/06/01 07:27:13;;;;;;;0.85;0.75;;;;;;;;;;5115729;27;20380;-83
2023/06/01 07:29:39;;;;;;;0.70;0.70;;;;;;;;;;5113275;28;20039;-83
2023/06/01 07:32:05;;;;;;;1.17;0.93;;;;;;;;;;5120809;27;20051;-85
2023/06/01 07:34:33;;;;;;;1.48;1.38;;;;;;;;;;5110462;27;20429;-84
2023/06/01 07:36:59;;;;;;;0.63;0.52;;;;;;;;;;5112687;28;20513;-83
2023/06/01 07:39:25;;;;;;;0.35;0.35;;;;;;;;;;5108168;28;20043;-85
2023/06/01 07:41:53;;;;;;;0.95;0.95;;;;;;;;;;5113521;28;20487;-84
2023/06/01 07:44:20;;;;;;;0.28;0.28;;;;;;;;;;5108185;28;20032;-81
2023/06/01 07:46:46;;;;;;;0.80;0.63;;;;;;;;;;5112509;27;20399;-84
2023/06/01 07:49:13;;;;;;;0.77;0.77;;;;;;;;;;5114855;27;20503;-83
2023/06/01 07:51:40;;;;;;;2.60;0.43;;;;;;;;;;5093414;28;20035;-84
2023/06/01 07:54:06;;;;;;;1.67;1.17;;;;;;;;;;5093041;28;20047;-81
2023/06/01 07:56:32;;;;;;;1.08;0.90;;;;;;;;;;5089614;28;20032;-81
2023/06/01 07:58:57;;;;;;;1.02;0.80;;;;;;;;;;5100632;27;20035;-83
2023/06/01 08:01:23;;;;;;;0.43;0.43;;;;;;;;;;5115027;27;20032;-83
2023/06/01 08:03:50;;;;;;;2.10;1.63;;;;;;;;;;5099902;28;20586;-84
2023/06/01 08:06:24;;;;;;;0.75;0.75;;;;;;;;;;5095050;28;20337;-82
2023/06/01 08:08:51;;;;;;;0.22;0.22;;;;;;;;;;5112353;28;20035;-82
2023/06/01 08:11:17;;;;;;;2.03;0.60;;;;;;;;;;5093969;28;20039;-81
2023/06/01 08:13:45;;;;;;;0.70;0.70;;;;;;;;;;5117555;27;20168;-81
2023/06/01 08:16:13;;;;;;;0.50;0.43;;;;;;;;;;5093838;28;20050;-82
2023/06/01 08:18:38;;;;;;;1.75;1.13;;;;;;;;;;5113810;28;20027;-81
2023/06/01 08:21:05;;;;;;;0.43;0.43;;;;;;;;;;5094469;28;20506;-83
2023/06/01 08:23:30;;;;;;;1.95;1.15;;;;;;;;;;5096711;28;20039;-84
2023/06/01 08:25:58;;;;;;;0.65;0.63;;;;;;;;;;5114941;27;20077;-82
2023/06/01 08:28:34;;;;;;;1.38;0.93;;;;;;;;;;5092316;28;20066;-81
2023/06/01 08:31:02;;;;;;;1.05;0.73;;;;;;;;;;5097422;28;20055;-83
2023/06/01 08:33:28;;;;;;;1.67;1.55;;;;;;;;;;5088190;28;20474;-85
2023/06/01 08:35:53;;;;;;;1.95;1.60;;;;;;;;;;5113233;28;20095;-84
2023/06/01 08:38:22;;;;;;;0.60;0.60;;;;;;;;;;5118075;27;20111;-85
2023/06/01 08:40:51;;;;;;;1.97;1.37;;;;;;;;;;5096390;28;20099;-85
2023/06/01 08:43:27;;;;;;;1.52;1.42;;;;;;;;;;5115582;28;20031;-86
2023/06/01 08:45:58;;;;;;;0.80;0.80;;;;;;;;;;5096689;28;20032;-85
2023/06/01 08:48:31;;;;;;;0.77;0.75;;;;;;;;;;5097202;28;20043;-83
2023/06/01 08:51:00;;;;;;;4.50;1.83;;;;;;;;;;5109763;28;20037;-85
2023/06/01 08:53:32;;;;;;;0.32;0.32;;;;;;;;;;5095729;28;20058;-84
2023/06/01 08:55:58;;;;;;;1.00;0.73;;;;;;;;;;5112238;28;20552;-85
2023/06/01 08:58:25;;;;;;;2.00;1.27;;;;;;;;;;5112019;28;20035;-85
2023/06/01 09:00:53;;;;;;;0.90;0.90;;;;;;;;;;5089865;28;20036;-88
2023/06/01 09:03:30;;;;;;;0.75;0.68;;;;;;;;;;5094536;28;20039;-85
2023/06/01 09:06:03;;;;;;;0.30;0.30;;;;;;;;;;5113037;28;20076;-86
2023/06/01 09:08:56;;;;;;;1.70;1.30;;;;;;;;;;5115578;28;20035;-86
2023/06/01 09:11:21;;;;;;;1.75;1.15;;;;;;;;;;5110316;28;20020;-82
2023/06/01 09:14:23;;;;;;;2.40;1.85;;;;;;;;;;5094332;28;20063;-84
2023/06/01 09:16:49;;;;;;;1.60;1.33;;;;;;;;;;5092163;28;20553;-83
2023/06/01 09:19:20;;;;;;;0.82;0.52;;;;;;;;;;5092991;28;20040;-85
2023/06/01 09:21:59;;;;;;;1.95;1.08;;;;;;;;;;5094863;28;20032;-81
2023/06/01 09:24:26;;;;;;;1.58;1.08;;;;;;;;;;5093947;28;20038;-84
2023/06/01 09:26:59;;;;;;;0.20;0.20;;;;;;;;;;5113894;28;20043;-88
2023/06/01 09:29:26;;;;;;;0.47;0.47;;;;;;;;;;5095279;28;20130;-82
2023/06/01 09:34:45;;;;;;;0.85;0.77;;;;;;;;;;5113696;28;20035;-83
2023/06/01 09:37:15;;;;;;;1.02;0.80;;;;;;;;;;5093306;28;20369;-84
2023/06/01 09:39:41;;;;;;;0.40;0.40;;;;;;;;;;5094198;28;21995;-84
2023/06/01 09:42:09;;;;;;;1.38;1.15;;;;;;;;;;5113431;27;20032;-86
2023/06/01 09:44:42;;;;;;;0.45;0.45;;;;;;;;;;5097099;28;20035;-85
2023/06/01 09:47:12;;;;;;;0.73;0.73;;;;;;;;;;5093815;28;20810;-82
2023/06/01 09:49:45;;;;;;;0.50;0.50;;;;;;;;;;5090630;28;20039;-82
2023/06/01 09:52:14;;;;;;;0.32;0.32;;;;;;;;;;5105732;27;20432;-81
2023/06/01 09:54:46;;;;;;;;;;;;;;;;;;5096638;28;20031;-80
2023/06/01 09:57:12;;;;;;;1.08;0.47;;;;;;;;;;5096697;28;20359;-83
2023/06/01 09:59:47;;;;;;;0.52;0.30;;;;;;;;;;5113489;28;20039;-84
2023/06/01 10:02:18;;;;;;;1.27;1.17;;;;;;;;;;5090597;28;20040;-83
2023/06/01 10:04:58;;;;;;;0.32;0.25;;;;;;;;;;5092151;28;21444;-83
2023/06/01 10:07:27;;;;;;;1.73;1.20;;;;;;;;;;5110496;27;20509;-83
2023/06/01 10:09:59;;;;;;;0.40;0.30;;;;;;;;;;5113997;28;20034;-82
2023/06/01 10:12:28;;;;;;;0.20;0.20;;;;;;;;;;5114273;27;20363;-82
2023/06/01 10:15:00;;;;;;;0.35;0.35;;;;;;;;;;5097459;27;20089;-81
2023/06/01 10:17:27;;;;;;;0.52;0.47;;;;;;;;;;5093238;28;20032;-82
2023/06/01 10:19:55;;;;;;;0.35;0.35;;;;;;;;;;5094300;28;20168;-85
2023/06/01 10:22:22;;;;;;;0.77;0.73;;;;;;;;;;5108153;28;20084;-83
2023/06/01 10:24:47;;;;;;;0.15;0.15;;;;;;;;;;5108370;28;20042;-85
2023/06/01 10:27:28;;;;;;;0.28;0.10;;;;;;;;;;5113056;28;20031;-82
2023/06/01 10:29:55;;;;;;;0.10;0.10;;;;;;;;;;5114339;28;20035;-82
2023/06/01 10:32:42;;;;;;;1.42;0.43;;;;;;;;;;5093329;28;20071;-83
2023/06/01 10:35:10;;;;;;;0.10;0.10;;;;;;;;;;5094126;28;20031;-83
2023/06/01 10:37:36;;;;;;;0.32;0.30;;;;;;;;;;5110244;28;20032;-82
2023/06/01 10:40:16;;;;;;;0.10;0.10;;;;;;;;;;5110366;28;20027;-83
2023/06/01 10:42:42;;;;;;;0.40;0.40;;;;;;;;;;5114770;27;20387;-84
2023/06/01 10:45:28;;;;;;;0.20;0.20;;;;;;;;;;5115146;28;20240;-85
2023/06/01 10:47:54;;;;;;;0.88;0.57;;;;;;;;;;5115083;28;20039;-84
2023/06/01 10:50:20;;;;;;;0.20;0.20;;;;;;;;;;5110725;27;20028;-84
2023/06/01 10:52:45;;;;;;;0.00;0.00;;;;;;;;;;5115254;27;20605;-83
2023/06/01 10:55:11;;;;;;;0.25;0.25;;;;;;;;;;5114691;27;20032;-85
2023/06/01 10:57:46;;;;;;;0.22;0.20;;;;;;;;;;5110553;28;20503;-84
2023/06/01 11:00:27;;;;;;;0.30;0.17;;;;;;;;;;5113641;28;20106;-84
2023/06/01 11:02:58;;;;;;;1.95;0.95;;;;;;;;;;5112695;28;20077;-82
2023/06/01 11:05:48;;;;;;;0.52;0.35;;;;;;;;;;5115008;28;20063;-84
2023/06/01 11:08:22;;;;;;;0.13;0.13;;;;;;;;;;5111255;28;20562;-83
2023/06/01 11:10:53;;;;;;;0.25;0.20;;;;;;;;;;5112000;27;20547;-83
2023/06/01 11:13:26;;;;;;;0.00;0.00;;;;;;;;;;5114633;28;20106;-84
2023/06/01 11:16:10;;;;;;;0.10;0.10;;;;;;;;;;5091566;28;20035;-85
2023/06/01 11:18:57;;;;;;;0.17;0.17;;;;;;;;;;5113502;27;20471;-85
2023/06/01 11:21:24;;;;;;;0.38;0.38;;;;;;;;;;5112464;28;20042;-82
2023/06/01 11:23:51;;;;;;;0.17;0.17;;;;;;;;;;5112898;28;20035;-82
2023/06/01 11:26:18;;;;;;;0.10;0.10;;;;;;;;;;5114869;27;20027;-82
2023/06/01 11:28:45;;;;;;;0.73;0.40;;;;;;;;;;5116793;27;20031;-84
2023/06/01 11:31:19;;;;;;;0.65;0.43;;;;;;;;;;5116870;27;20122;-83
2023/06/01 11:33:52;;;;;;;1.85;0.38;;;;;;;;;;5094915;28;21262;-83
2023/06/01 11:36:23;;;;;;;0.45;0.40;;;;;;;;;;5110332;28;20488;-86
2023/06/01 11:38:49;;;;;;;0.22;0.22;;;;;;;;;;5113259;28;20032;-85
2023/06/01 11:41:15;;;;;;;0.15;0.15;;;;;;;;;;5114439;28;20109;-85
2023/06/01 11:43:40;;;;;;;0.00;0.00;;;;;;;;;;5115191;27;20383;-86
2023/06/01 11:46:07;;;;;;;0.40;0.25;;;;;;;;;;5116956;27;20444;-83
2023/06/01 11:48:34;;;;;;;0.80;0.43;;;;;;;;;;5114379;28;20031;-84
2023/06/01 11:51:01;;;;;;;0.03;0.03;;;;;;;;;;5114122;28;20375;-87
2023/06/01 11:53:27;;;;;;;0.10;0.10;;;;;;;;;;5118545;27;20024;-84
2023/06/01 11:55:54;;;;;;;0.00;0.00;;;;;;;;;;5096375;28;20083;-83
2023/06/01 11:58:28;;;;;;;0.10;0.10;;;;;;;;;;5096829;28;20038;-86
2023/06/01 12:00:54;;;;;;;0.17;0.17;;;;;;;;;;5113068;27;20444;-84
2023/06/01 12:03:20;;;;;;;0.40;0.32;;;;;;;;;;5112135;28;20067;-85
2023/06/01 12:05:48;;;;;;;0.10;0.05;;;;;;;;;;5114436;28;20062;-87
2023/06/01 12:08:21;;;;;;;0.00;0.00;;;;;;;;;;5111399;27;20038;-87
2023/06/01 12:10:50;;;;;;;0.30;0.22;;;;;;;;;;5113595;28;20031;-82
2023/06/01 12:13:16;;;;;;;0.50;0.20;;;;;;;;;;5109366;28;20027;-83
2023/06/01 12:15:43;;;;;;;0.30;0.22;;;;;;;;;;5113538;28;20043;-83
2023/06/01 12:18:08;;;;;;;0.00;0.00;;;;;;;;;;5114091;27;20027;-82
2023/06/01 12:20:42;;;;;;;1.27;0.20;;;;;;;;;;5111878;28;20069;-85
2023/06/01 12:23:14;;;;;;;0.25;0.25;;;;;;;;;;5117836;27;20483;-82
2023/06/01 12:25:58;;;;;;;0.40;0.40;;;;;;;;;;5112553;28;20122;-84
2023/06/01 12:28:25;;;;;;;0.08;0.08;;;;;;;;;;5111943;28;20031;-85
2023/06/01 12:31:12;;;;;;;0.10;0.10;;;;;;;;;;5112741;27;20031;-86
2023/06/01 12:33:39;;;;;;;0.73;0.40;;;;;;;;;;5086183;28;20103;-87
2023/06/01 12:36:06;;;;;;;0.45;0.45;;;;;;;;;;5082793;28;20024;-84
2023/06/01 12:38:49;;;;;;;0.25;0.20;;;;;;;;;;5083302;28;20043;-86
2023/06/01 12:41:15;;;;;;;0.10;0.10;;;;;;;;;;5087932;28;20118;-86
2023/06/01 12:43:47;;;;;;;0.20;0.20;;;;;;;;;;5085260;28;20060;-84
2023/06/01 12:46:27;;;;;;;0.08;0.08;;;;;;;;;;5082267;28;20028;-85
2023/06/01 12:49:17;;;;;;;0.25;0.25;;;;;;;;;;5062182;28;20036;-85
2023/06/01 12:51:42;;;;;;;0.65;0.32;;;;;;;;;;5083193;28;20024;-84
2023/06/01 12:54:08;;;;;;;1.17;0.20;;;;;;;;;;5075607;28;20150;-85
2023/06/01 12:56:33;;;;;;;0.65;0.65;;;;;;;;;;5083750;28;20028;-84
2023/06/01 12:58:59;;;;;;;0.00;0.00;;;;;;;;;;5062681;28;20043;-85
2023/06/01 13:01:24;;;;;;;0.30;0.30;;;;;;;;;;5087239;28;20051;-83
2023/06/01 13:03:51;;;;;;;0.43;0.43;;;;;;;;;;5084329;28;20063;-84
2023/06/01 13:06:17;;;;;;;0.52;0.45;;;;;;;;;;5082537;28;20086;-85
2023/06/01 13:08:43;;;;;;;0.73;0.30;;;;;;;;;;5085609;28;20028;-83
2023/06/01 13:11:08;;;;;;;0.20;0.20;;;;;;;;;;5081973;28;20104;-85
2023/06/01 13:13:34;;;;;;;0.10;0.10;;;;;;;;;;5083119;28;20043;-83
2023/06/01 13:16:00;;;;;;;0.00;0.00;;;;;;;;;;5079680;28;20037;-86
2023/06/01 13:18:25;;;;;;;0.30;0.20;;;;;;;;;;5074225;28;20077;-87
2023/06/01 13:20:51;;;;;;;0.00;0.00;;;;;;;;;;5091489;28;20507;-86
2023/06/01 13:23:17;;;;;;;0.10;0.10;;;;;;;;;;5069756;28;20032;-87
2023/06/01 13:25:43;;;;;;;0.20;0.17;;;;;;;;;;5087685;28;20031;-84
2023/06/01 13:28:15;;;;;;;0.00;0.00;;;;;;;;;;5072259;28;20383;-87
2023/06/01 13:30:42;;;;;;;0.22;0.22;;;;;;;;;;5071147;28;20628;-86
2023/06/01 13:33:08;;;;;;;0.00;0.00;;;;;;;;;;5077373;28;20161;-86
2023/06/01 13:35:34;;;;;;;0.10;0.10;;;;;;;;;;5069132;28;20032;-86
2023/06/01 13:38:00;;;;;;;0.08;0.08;;;;;;;;;;5070758;28;20021;-86
2023/06/01 13:40:26;;;;;;;0.00;0.00;;;;;;;;;;5075918;28;20055;-85
2023/06/01 13:42:52;;;;;;;0.05;0.05;;;;;;;;;;5076681;28;20024;-85
2023/06/01 13:45:18;;;;;;;0.00;0.00;;;;;;;;;;5079899;28;20029;-86
2023/06/01 13:47:45;;;;;;;1.25;0.20;;;;;;;;;;5072589;28;20016;-86
2023/06/01 13:50:12;;;;;;;0.20;0.10;;;;;;;;;;5068714;28;20032;-85
2023/06/01 13:52:38;;;;;;;0.00;0.00;;;;;;;;;;5067112;28;20029;-85
2023/06/01 13:55:04;;;;;;;0.00;0.00;;;;;;;;;;5073941;28;20025;-83
2023/06/01 13:57:30;;;;;;;0.40;0.40;;;;;;;;;;5069887;28;20021;-84
2023/06/01 13:59:55;;;;;;;0.05;0.05;;;;;;;;;;5076588;28;20025;-86
2023/06/01 14:02:21;;;;;;;0.10;0.10;;;;;;;;;;5080193;28;20024;-84
2023/06/01 14:04:46;;;;;;;0.47;0.30;;;;;;;;;;5074523;28;20025;-85
2023/06/01 14:07:11;;;;;;;0.00;0.00;;;;;;;;;;5071124;28;20035;-85
2023/06/01 14:09:37;;;;;;;0.50;0.22;;;;;;;;;;5074574;28;20041;-85
2023/06/01 14:12:03;;;;;;;0.10;0.10;;;;;;;;;;5072884;28;20085;-85
2023/06/01 14:14:28;;;;;;;0.10;0.10;;;;;;;;;;5076578;28;20039;-84
2023/06/01 14:16:54;;;;;;;0.10;0.10;;;;;;;;;;5066570;28;20032;-85
2023/06/01 14:19:19;;;;;;;0.20;0.20;;;;;;;;;;5081129;28;20042;-86
2023/06/01 14:21:44;;;;;;;0.00;0.00;;;;;;;;;;5075463;28;20458;-88
2023/06/01 14:24:10;;;;;;;0.10;0.10;;;;;;;;;;5067995;28;20025;-86
2023/06/01 14:26:35;;;;;;;0.30;0.30;;;;;;;;;;5063785;28;20081;-86
2023/06/01 14:29:01;;;;;;;0.10;0.10;;;;;;;;;;5062813;28;20029;-86
2023/06/01 14:31:26;;;;;;;1.15;0.75;;;;;;;;;;5067877;28;20475;-87
2023/06/01 14:33:52;;;;;;;7.13;0.73;;;;;;;;;;5069434;28;20024;-85
2023/06/01 14:36:19;;;;;;;0.15;0.15;;;;;;;;;;5081057;28;20032;-84
2023/06/01 14:38:45;;;;;;;0.10;0.10;;;;;;;;;;5058738;28;21027;-85
2023/06/01 14:41:11;;;;;;;0.43;0.28;;;;;;;;;;5058172;28;20111;-84
2023/06/01 14:43:38;;;;;;;0.20;0.20;;;;;;;;;;5061082;28;20071;-86
2023/06/01 14:46:04;;;;;;;0.00;0.00;;;;;;;;;;5058320;28;20032;-84
2023/06/01 14:48:30;;;;;;;0.10;0.10;;;;;;;;;;5056766;28;20033;-87
2023/06/01 14:50:56;;;;;;;0.93;0.90;;;;;;;;;;5063108;28;20033;-87
2023/06/01 14:53:21;;;;;;;1.35;0.40;;;;;;;;;;5061967;28;20059;-85